This is the latest recevied weather packets stored in our database for station/object E24YPM-1. If no packets are shown the sender has not sent any weather packets the latest 10 day(s).
| Time | Temp. | Humidity | Pressure | Rain* | Wind** | Luminosity | Snow |
|---|---|---|---|---|---|---|---|
| 1777565940 | 30.56° C | 33% | 1008 hPa | - | - | 0 W/m² | - |
| 1777565028 | 30.56° C | 33% | 1008 hPa | - | - | 0 W/m² | - |
| 1777564115 | 31.11° C | 33% | 1009 hPa | - | - | 0 W/m² | - |
| 1777563202 | 31.11° C | 34% | 1008 hPa | - | - | 0 W/m² | - |
| 1777562289 | 31.67° C | 34% | 1008 hPa | - | - | 0 W/m² | - |
| 1777561373 | 31.67° C | 35% | 1007 hPa | - | - | 0 W/m² | - |
| 1777560443 | 32.22° C | 36% | 1007 hPa | - | - | 0 W/m² | - |
| 1777559527 | 32.78° C | 38% | 1007 hPa | - | - | 0 W/m² | - |
| 1777558614 | 33.33° C | 43% | 1006 hPa | - | - | 0 W/m² | - |
| 1777557700 | 35° C | 48% | 1006 hPa | - | - | 0 W/m² | - |
| 1777556784 | 35° C | 47% | 1005 hPa | - | - | 0 W/m² | - |
| 1777555872 | 35° C | 47% | 1005 hPa | - | - | 0 W/m² | - |
| 1777554959 | 35° C | 48% | 1005 hPa | - | - | 0 W/m² | - |
| 1777554047 | 35° C | 48% | 1004 hPa | - | - | 0 W/m² | - |
| 1777553133 | 35° C | 48% | 1004 hPa | - | - | 0 W/m² | - |
| 1777552221 | 35° C | 47% | 1004 hPa | - | - | 0 W/m² | - |
| 1777551298 | 35° C | 46% | 1004 hPa | - | - | 0 W/m² | - |
| 1777550392 | 35° C | 44% | 1003 hPa | - | - | 0 W/m² | - |
| 1777549465 | 35° C | 43% | 1002 hPa | - | - | 0 W/m² | - |
| 1777548543 | 35° C | 43% | 1001 hPa | - | - | 0 W/m² | - |
| 1777547629 | 34.44° C | 42% | 1001 hPa | - | - | 0 W/m² | - |
| 1777546716 | 34.44° C | 42% | 1002 hPa | - | - | 0 W/m² | - |
| 1777545802 | 34.44° C | 42% | 1002 hPa | - | - | 0 W/m² | - |
| 1777544889 | 33.89° C | 42% | 1002 hPa | - | - | 0 W/m² | - |
| 1777543972 | 33.89° C | 42% | 1001 hPa | - | - | 0 W/m² | - |
* Rain since midnight (hover to see other rain measurements)
** Current wind speed in m/s (hover to see current wind gust speed)